sensor_id;sensor_type;location;lat;lon;timestamp;P1;durP1;ratioP1;P2;durP2;ratioP2
44973;SDS011;60981;50.720;11.342;2023-05-16T05:00:45;13.18;;;9.15;;
44973;SDS011;60981;50.720;11.342;2023-05-16T05:01:47;13.48;;;9.57;;
44973;SDS011;60981;50.720;11.342;2023-05-16T13:41:06;5.07;;;0.95;;
44973;SDS011;60981;50.720;11.342;2023-05-16T13:42:08;6.88;;;0.98;;
44973;SDS011;60981;50.720;11.342;2023-05-16T13:43:11;4.57;;;1.00;;
44973;SDS011;60981;50.720;11.342;2023-05-16T13:44:16;4.05;;;0.65;;
44973;SDS011;60981;50.720;11.342;2023-05-16T13:45:19;4.63;;;1.02;;
44973;SDS011;60981;50.720;11.342;2023-05-16T13:46:21;4.32;;;1.10;;
44973;SDS011;60981;50.720;11.342;2023-05-16T13:47:23;5.35;;;0.80;;
44973;SDS011;60981;50.720;11.342;2023-05-16T13:48:34;7.40;;;0.80;;
44973;SDS011;60981;50.720;11.342;2023-05-16T13:49:40;2.80;;;0.70;;
44973;SDS011;60981;50.720;11.342;2023-05-16T13:50:55;5.32;;;1.00;;
44973;SDS011;60981;50.720;11.342;2023-05-16T13:51:58;4.47;;;1.08;;
44973;SDS011;60981;50.720;11.342;2023-05-16T13:53:05;6.85;;;0.90;;
44973;SDS011;60981;50.720;11.342;2023-05-16T13:54:14;6.05;;;0.80;;
44973;SDS011;60981;50.720;11.342;2023-05-16T13:55:17;6.22;;;0.90;;
44973;SDS011;60981;50.720;11.342;2023-05-16T13:56:19;4.07;;;1.05;;
44973;SDS011;60981;50.720;11.342;2023-05-16T13:57:24;7.57;;;0.70;;
44973;SDS011;60981;50.720;11.342;2023-05-16T13:58:33;6.20;;;1.63;;
44973;SDS011;60981;50.720;11.342;2023-05-16T13:59:58;6.90;;;0.65;;
44973;SDS011;60981;50.720;11.342;2023-05-16T14:01:04;5.60;;;1.10;;
44973;SDS011;60981;50.720;11.342;2023-05-16T14:02:08;4.25;;;0.80;;
44973;SDS011;60981;50.720;11.342;2023-05-16T14:03:17;3.97;;;0.63;;
44973;SDS011;60981;50.720;11.342;2023-05-16T14:04:23;6.22;;;1.25;;
44973;SDS011;60981;50.720;11.342;2023-05-16T14:05:27;6.68;;;0.82;;
44973;SDS011;60981;50.720;11.342;2023-05-16T14:06:29;6.65;;;0.95;;
44973;SDS011;60981;50.720;11.342;2023-05-16T14:07:32;6.03;;;0.82;;
44973;SDS011;60981;50.720;11.342;2023-05-16T14:08:34;4.30;;;0.95;;
44973;SDS011;60981;50.720;11.342;2023-05-16T14:09:36;7.63;;;1.30;;
44973;SDS011;60981;50.720;11.342;2023-05-16T14:10:40;5.53;;;0.93;;
44973;SDS011;60981;50.720;11.342;2023-05-16T14:11:45;4.75;;;0.98;;
44973;SDS011;60981;50.720;11.342;2023-05-16T14:12:47;3.25;;;0.82;;
44973;SDS011;60981;50.720;11.342;2023-05-16T14:13:51;4.15;;;0.40;;
44973;SDS011;60981;50.720;11.342;2023-05-16T14:14:53;3.13;;;0.57;;
44973;SDS011;60981;50.720;11.342;2023-05-16T14:15:56;3.17;;;0.47;;
44973;SDS011;60981;50.720;11.342;2023-05-16T14:16:59;5.28;;;1.00;;
44973;SDS011;60981;50.720;11.342;2023-05-16T14:18:01;4.35;;;1.15;;
44973;SDS011;60981;50.720;11.342;2023-05-16T14:19:05;6.72;;;0.77;;
44973;SDS011;60981;50.720;11.342;2023-05-16T14:20:08;6.18;;;0.52;;
44973;SDS011;60981;50.720;11.342;2023-05-16T14:21:12;8.65;;;1.60;;
44973;SDS011;60981;50.720;11.342;2023-05-16T14:22:14;5.57;;;0.80;;
44973;SDS011;60981;50.720;11.342;2023-05-16T14:23:16;6.20;;;1.23;;
44973;SDS011;60981;50.720;11.342;2023-05-16T14:24:20;6.57;;;1.40;;
44973;SDS011;60981;50.720;11.342;2023-05-16T14:25:23;4.38;;;0.60;;
44973;SDS011;60981;50.720;11.342;2023-05-16T14:26:28;6.72;;;2.35;;
44973;SDS011;60981;50.720;11.342;2023-05-16T14:27:30;3.92;;;0.90;;
44973;SDS011;60981;50.720;11.342;2023-05-16T14:28:32;4.07;;;0.80;;
44973;SDS011;60981;50.720;11.342;2023-05-16T14:29:40;5.05;;;0.70;;
44973;SDS011;60981;50.720;11.342;2023-05-16T14:30:49;6.38;;;0.95;;
44973;SDS011;60981;50.720;11.342;2023-05-16T14:32:00;4.60;;;0.60;;
44973;SDS011;60981;50.720;11.342;2023-05-16T14:33:05;4.20;;;0.60;;
44973;SDS011;60981;50.720;11.342;2023-05-16T14:34:08;5.53;;;0.65;;
44973;SDS011;60981;50.720;11.342;2023-05-16T14:35:11;4.90;;;0.90;;
44973;SDS011;60981;50.720;11.342;2023-05-16T14:36:13;5.05;;;0.57;;
44973;SDS011;60981;50.720;11.342;2023-05-16T14:37:15;5.85;;;0.80;;
44973;SDS011;60981;50.720;11.342;2023-05-16T14:38:19;5.80;;;1.48;;
44973;SDS011;60981;50.720;11.342;2023-05-16T14:39:22;3.65;;;0.93;;
44973;SDS011;60981;50.720;11.342;2023-05-16T14:40:24;6.30;;;1.08;;
44973;SDS011;60981;50.720;11.342;2023-05-16T14:41:27;5.72;;;0.95;;
44973;SDS011;60981;50.720;11.342;2023-05-16T14:42:29;4.25;;;0.80;;
44973;SDS011;60981;50.720;11.342;2023-05-16T14:43:32;5.22;;;0.80;;
44973;SDS011;60981;50.720;11.342;2023-05-16T14:44:34;4.55;;;0.68;;
44973;SDS011;60981;50.720;11.342;2023-05-16T14:45:36;4.95;;;0.77;;
44973;SDS011;60981;50.720;11.342;2023-05-16T14:46:38;5.32;;;0.80;;
44973;SDS011;60981;50.720;11.342;2023-05-16T14:47:41;5.60;;;0.80;;
44973;SDS011;60981;50.720;11.342;2023-05-16T14:48:45;5.68;;;0.98;;
44973;SDS011;60981;50.720;11.342;2023-05-16T14:49:48;4.32;;;0.80;;
44973;SDS011;60981;50.720;11.342;2023-05-16T14:50:52;4.53;;;0.70;;
44973;SDS011;60981;50.720;11.342;2023-05-16T14:51:54;4.63;;;1.00;;
44973;SDS011;60981;50.720;11.342;2023-05-16T14:52:57;4.63;;;0.80;;
44973;SDS011;60981;50.720;11.342;2023-05-16T14:53:58;3.85;;;0.70;;
44973;SDS011;60981;50.720;11.342;2023-05-16T14:55:03;5.50;;;0.68;;
44973;SDS011;60981;50.720;11.342;2023-05-16T14:56:04;5.40;;;0.98;;
44973;SDS011;60981;50.720;11.342;2023-05-16T14:57:07;6.10;;;1.20;;
44973;SDS011;60981;50.720;11.342;2023-05-16T14:58:11;4.95;;;0.50;;
44973;SDS011;60981;50.720;11.342;2023-05-16T14:59:13;4.15;;;0.80;;
44973;SDS011;60981;50.720;11.342;2023-05-16T15:00:20;6.65;;;0.90;;
44973;SDS011;60981;50.720;11.342;2023-05-16T15:01:23;5.55;;;0.82;;
44973;SDS011;60981;50.720;11.342;2023-05-16T15:02:25;3.90;;;0.85;;
44973;SDS011;60981;50.720;11.342;2023-05-16T15:03:27;4.15;;;0.68;;
44973;SDS011;60981;50.720;11.342;2023-05-16T15:04:32;5.10;;;0.80;;
44973;SDS011;60981;50.720;11.342;2023-05-16T15:05:34;5.47;;;0.57;;
44973;SDS011;60981;50.720;11.342;2023-05-16T15:06:37;4.37;;;0.90;;
44973;SDS011;60981;50.720;11.342;2023-05-16T15:07:39;5.72;;;0.63;;
44973;SDS011;60981;50.720;11.342;2023-05-16T15:08:41;4.95;;;0.80;;
44973;SDS011;60981;50.720;11.342;2023-05-16T15:09:43;5.30;;;0.77;;
44973;SDS011;60981;50.720;11.342;2023-05-16T15:10:48;7.65;;;0.85;;
44973;SDS011;60981;50.720;11.342;2023-05-16T15:11:50;5.22;;;0.85;;
44973;SDS011;60981;50.720;11.342;2023-05-16T15:12:53;4.68;;;0.70;;
44973;SDS011;60981;50.720;11.342;2023-05-16T15:13:54;5.80;;;0.75;;
44973;SDS011;60981;50.720;11.342;2023-05-16T15:14:57;4.43;;;0.68;;
44973;SDS011;60981;50.720;11.342;2023-05-16T15:16:00;4.93;;;0.63;;
44973;SDS011;60981;50.720;11.342;2023-05-16T15:17:02;6.82;;;1.20;;
44973;SDS011;60981;50.720;11.342;2023-05-16T15:18:08;4.63;;;0.63;;
44973;SDS011;60981;50.720;11.342;2023-05-16T15:19:11;4.95;;;0.65;;
44973;SDS011;60981;50.720;11.342;2023-05-16T15:20:13;5.13;;;1.00;;
44973;SDS011;60981;50.720;11.342;2023-05-16T15:21:16;4.63;;;0.80;;
44973;SDS011;60981;50.720;11.342;2023-05-16T15:22:19;4.55;;;0.70;;
44973;SDS011;60981;50.720;11.342;2023-05-16T15:23:21;4.20;;;0.60;;
44973;SDS011;60981;50.720;11.342;2023-05-16T15:24:23;4.60;;;0.70;;
44973;SDS011;60981;50.720;11.342;2023-05-16T15:25:25;7.32;;;1.08;;
44973;SDS011;60981;50.720;11.342;2023-05-16T15:26:27;5.05;;;0.80;;
44973;SDS011;60981;50.720;11.342;2023-05-16T15:27:29;5.35;;;1.08;;
44973;SDS011;60981;50.720;11.342;2023-05-16T15:28:30;4.05;;;0.70;;
44973;SDS011;60981;50.720;11.342;2023-05-16T15:29:32;6.25;;;0.70;;
44973;SDS011;60981;50.720;11.342;2023-05-16T15:30:34;3.75;;;0.82;;
44973;SDS011;60981;50.720;11.342;2023-05-16T15:31:35;4.47;;;0.80;;
44973;SDS011;60981;50.720;11.342;2023-05-16T15:32:38;4.20;;;0.65;;
44973;SDS011;60981;50.720;11.342;2023-05-16T15:33:42;6.57;;;0.82;;
44973;SDS011;60981;50.720;11.342;2023-05-16T15:34:48;6.28;;;0.70;;
44973;SDS011;60981;50.720;11.342;2023-05-16T15:35:50;4.85;;;0.77;;
44973;SDS011;60981;50.720;11.342;2023-05-16T15:36:55;4.00;;;0.50;;
44973;SDS011;60981;50.720;11.342;2023-05-16T15:37:57;4.70;;;0.80;;
44973;SDS011;60981;50.720;11.342;2023-05-16T15:39:00;3.80;;;0.60;;
44973;SDS011;60981;50.720;11.342;2023-05-16T15:40:01;4.45;;;0.70;;
44973;SDS011;60981;50.720;11.342;2023-05-16T15:41:05;9.27;;;1.00;;
44973;SDS011;60981;50.720;11.342;2023-05-16T15:42:27;7.50;;;2.25;;
44973;SDS011;60981;50.720;11.342;2023-05-16T15:57:03;5.63;;;1.00;;
44973;SDS011;60981;50.720;11.342;2023-05-16T15:58:05;2.88;;;0.73;;
44973;SDS011;60981;50.720;11.342;2023-05-16T15:59:06;6.10;;;0.55;;
44973;SDS011;60981;50.720;11.342;2023-05-16T16:00:08;2.85;;;0.60;;
44973;SDS011;60981;50.720;11.342;2023-05-16T16:01:11;3.58;;;0.88;;
44973;SDS011;60981;50.720;11.342;2023-05-16T16:02:12;5.97;;;0.80;;
44973;SDS011;60981;50.720;11.342;2023-05-16T16:03:15;4.30;;;0.50;;
44973;SDS011;60981;50.720;11.342;2023-05-16T16:04:17;4.57;;;0.50;;
44973;SDS011;60981;50.720;11.342;2023-05-16T16:05:23;4.45;;;0.88;;
44973;SDS011;60981;50.720;11.342;2023-05-16T16:06:25;2.75;;;0.70;;
44973;SDS011;60981;50.720;11.342;2023-05-16T16:07:27;3.22;;;0.55;;
44973;SDS011;60981;50.720;11.342;2023-05-16T16:08:29;5.85;;;0.68;;
44973;SDS011;60981;50.720;11.342;2023-05-16T16:09:30;10.70;;;1.10;;
44973;SDS011;60981;50.720;11.342;2023-05-16T16:10:32;4.97;;;0.60;;
44973;SDS011;60981;50.720;11.342;2023-05-16T16:11:34;4.55;;;0.60;;
44973;SDS011;60981;50.720;11.342;2023-05-16T16:12:38;6.63;;;0.80;;
44973;SDS011;60981;50.720;11.342;2023-05-16T16:13:40;2.45;;;0.52;;
44973;SDS011;60981;50.720;11.342;2023-05-16T16:14:41;3.13;;;0.50;;
44973;SDS011;60981;50.720;11.342;2023-05-16T16:15:43;3.00;;;0.60;;
44973;SDS011;60981;50.720;11.342;2023-05-16T16:16:45;2.28;;;0.30;;
44973;SDS011;60981;50.720;11.342;2023-05-16T16:17:47;3.83;;;0.52;;
44973;SDS011;60981;50.720;11.342;2023-05-16T16:49:55;4.53;;;0.55;;
44973;SDS011;60981;50.720;11.342;2023-05-16T16:50:59;6.88;;;0.55;;
44973;SDS011;60981;50.720;11.342;2023-05-16T16:52:02;3.95;;;0.40;;
44973;SDS011;60981;50.720;11.342;2023-05-16T16:53:04;3.60;;;0.40;;
44973;SDS011;60981;50.720;11.342;2023-05-16T16:54:06;3.97;;;0.52;;
44973;SDS011;60981;50.720;11.342;2023-05-16T16:55:08;3.03;;;0.40;;
44973;SDS011;60981;50.720;11.342;2023-05-16T16:56:09;5.47;;;0.68;;
44973;SDS011;60981;50.720;11.342;2023-05-16T16:57:11;3.17;;;0.57;;
44973;SDS011;60981;50.720;11.342;2023-05-16T16:58:13;4.35;;;0.60;;
44973;SDS011;60981;50.720;11.342;2023-05-16T16:59:15;3.97;;;0.40;;
44973;SDS011;60981;50.720;11.342;2023-05-16T17:00:17;2.47;;;0.40;;
44973;SDS011;60981;50.720;11.342;2023-05-16T17:01:18;5.07;;;0.75;;
44973;SDS011;60981;50.720;11.342;2023-05-16T17:02:20;3.88;;;0.52;;
44973;SDS011;60981;50.720;11.342;2023-05-16T17:03:23;3.20;;;0.40;;
44973;SDS011;60981;50.720;11.342;2023-05-16T17:04:25;4.18;;;0.40;;
44973;SDS011;60981;50.720;11.342;2023-05-16T17:05:27;3.88;;;0.40;;
44973;SDS011;60981;50.720;11.342;2023-05-16T17:06:31;4.75;;;0.50;;
44973;SDS011;60981;50.720;11.342;2023-05-16T17:07:33;4.72;;;0.88;;
44973;SDS011;60981;50.720;11.342;2023-05-16T17:08:34;2.80;;;0.50;;
44973;SDS011;60981;50.720;11.342;2023-05-16T17:09:36;3.60;;;0.50;;
44973;SDS011;60981;50.720;11.342;2023-05-16T17:10:42;4.25;;;0.57;;
44973;SDS011;60981;50.720;11.342;2023-05-16T17:11:46;3.40;;;0.47;;
44973;SDS011;60981;50.720;11.342;2023-05-16T17:12:48;3.13;;;0.50;;
44973;SDS011;60981;50.720;11.342;2023-05-16T17:13:50;5.13;;;0.70;;
44973;SDS011;60981;50.720;11.342;2023-05-16T17:14:52;2.58;;;0.60;;
44973;SDS011;60981;50.720;11.342;2023-05-16T17:15:54;5.53;;;0.88;;
44973;SDS011;60981;50.720;11.342;2023-05-16T17:16:56;5.35;;;1.00;;
44973;SDS011;60981;50.720;11.342;2023-05-16T17:17:58;4.78;;;1.17;;
44973;SDS011;60981;50.720;11.342;2023-05-16T17:19:00;4.20;;;0.87;;
44973;SDS011;60981;50.720;11.342;2023-05-16T17:20:02;5.57;;;1.30;;
44973;SDS011;60981;50.720;11.342;2023-05-16T17:21:07;4.15;;;0.90;;
44973;SDS011;60981;50.720;11.342;2023-05-16T17:22:09;5.90;;;1.23;;
44973;SDS011;60981;50.720;11.342;2023-05-16T17:23:11;10.98;;;2.70;;
44973;SDS011;60981;50.720;11.342;2023-05-16T17:24:13;4.53;;;0.80;;
44973;SDS011;60981;50.720;11.342;2023-05-16T17:25:14;4.22;;;0.70;;
44973;SDS011;60981;50.720;11.342;2023-05-16T17:26:16;5.13;;;1.20;;
44973;SDS011;60981;50.720;11.342;2023-05-16T17:27:18;4.95;;;1.20;;
44973;SDS011;60981;50.720;11.342;2023-05-16T17:28:20;5.18;;;0.80;;
44973;SDS011;60981;50.720;11.342;2023-05-16T17:29:23;4.97;;;0.90;;
44973;SDS011;60981;50.720;11.342;2023-05-16T17:30:25;5.10;;;0.80;;
44973;SDS011;60981;50.720;11.342;2023-05-16T17:31:27;3.40;;;0.60;;
44973;SDS011;60981;50.720;11.342;2023-05-16T17:32:29;6.07;;;0.70;;
44973;SDS011;60981;50.720;11.342;2023-05-16T17:33:33;4.15;;;1.05;;
44973;SDS011;60981;50.720;11.342;2023-05-16T17:34:36;4.93;;;1.17;;
44973;SDS011;60981;50.720;11.342;2023-05-16T17:35:38;4.43;;;0.60;;
44973;SDS011;60981;50.720;11.342;2023-05-16T17:36:41;4.13;;;0.60;;
44973;SDS011;60981;50.720;11.342;2023-05-16T17:37:44;3.30;;;0.63;;
44973;SDS011;60981;50.720;11.342;2023-05-16T17:38:49;3.55;;;0.80;;
44973;SDS011;60981;50.720;11.342;2023-05-16T17:39:51;3.35;;;0.60;;
44973;SDS011;60981;50.720;11.342;2023-05-16T20:44:39;5.38;;;0.95;;
44973;SDS011;60981;50.720;11.342;2023-05-16T20:45:41;4.68;;;1.27;;
44973;SDS011;60981;50.720;11.342;2023-05-16T20:46:43;4.20;;;1.05;;
44973;SDS011;60981;50.720;11.342;2023-05-16T20:47:46;4.57;;;0.80;;
44973;SDS011;60981;50.720;11.342;2023-05-16T20:48:48;4.05;;;0.88;;
44973;SDS011;60981;50.720;11.342;2023-05-16T20:49:50;3.55;;;0.80;;
44973;SDS011;60981;50.720;11.342;2023-05-16T20:50:51;5.30;;;0.90;;
44973;SDS011;60981;50.720;11.342;2023-05-16T20:51:53;6.47;;;1.13;;
44973;SDS011;60981;50.720;11.342;2023-05-16T20:52:55;6.05;;;1.10;;
44973;SDS011;60981;50.720;11.342;2023-05-16T20:53:57;4.10;;;1.05;;
44973;SDS011;60981;50.720;11.342;2023-05-16T20:54:59;4.22;;;1.10;;
44973;SDS011;60981;50.720;11.342;2023-05-16T20:56:09;4.93;;;1.15;;
44973;SDS011;60981;50.720;11.342;2023-05-16T20:57:11;4.68;;;1.08;;
44973;SDS011;60981;50.720;11.342;2023-05-16T20:58:14;4.53;;;1.13;;
44973;SDS011;60981;50.720;11.342;2023-05-16T20:59:19;5.25;;;1.10;;
44973;SDS011;60981;50.720;11.342;2023-05-16T21:00:25;5.32;;;1.08;;
44973;SDS011;60981;50.720;11.342;2023-05-16T21:01:26;4.80;;;1.10;;
44973;SDS011;60981;50.720;11.342;2023-05-16T21:02:29;6.25;;;1.05;;
44973;SDS011;60981;50.720;11.342;2023-05-16T21:03:34;4.43;;;1.20;;
44973;SDS011;60981;50.720;11.342;2023-05-16T21:04:37;4.85;;;1.00;;
44973;SDS011;60981;50.720;11.342;2023-05-16T21:05:40;4.47;;;1.02;;
44973;SDS011;60981;50.720;11.342;2023-05-16T21:06:42;3.67;;;0.80;;
44973;SDS011;60981;50.720;11.342;2023-05-16T21:07:44;4.25;;;0.90;;
44973;SDS011;60981;50.720;11.342;2023-05-16T21:08:46;5.15;;;1.00;;
44973;SDS011;60981;50.720;11.342;2023-05-16T21:09:47;5.75;;;1.20;;
44973;SDS011;60981;50.720;11.342;2023-05-16T21:10:52;3.90;;;1.00;;
44973;SDS011;60981;50.720;11.342;2023-05-16T21:11:55;4.20;;;0.98;;
44973;SDS011;60981;50.720;11.342;2023-05-16T21:12:59;4.43;;;1.10;;
44973;SDS011;60981;50.720;11.342;2023-05-16T21:14:00;3.67;;;0.80;;
44973;SDS011;60981;50.720;11.342;2023-05-16T21:15:02;4.07;;;0.80;;
44973;SDS011;60981;50.720;11.342;2023-05-16T21:16:06;5.47;;;1.05;;
44973;SDS011;60981;50.720;11.342;2023-05-16T21:17:08;5.53;;;1.48;;
44973;SDS011;60981;50.720;11.342;2023-05-16T21:18:10;6.57;;;1.00;;
44973;SDS011;60981;50.720;11.342;2023-05-16T21:19:15;3.92;;;0.90;;
44973;SDS011;60981;50.720;11.342;2023-05-16T21:20:19;3.70;;;1.00;;
44973;SDS011;60981;50.720;11.342;2023-05-16T21:21:21;3.63;;;0.80;;
44973;SDS011;60981;50.720;11.342;2023-05-16T21:22:22;6.05;;;1.10;;
44973;SDS011;60981;50.720;11.342;2023-05-16T21:23:24;3.80;;;1.03;;
44973;SDS011;60981;50.720;11.342;2023-05-16T21:24:26;5.75;;;1.00;;
44973;SDS011;60981;50.720;11.342;2023-05-16T21:25:29;7.10;;;1.30;;
44973;SDS011;60981;50.720;11.342;2023-05-16T21:26:30;4.15;;;0.98;;
44973;SDS011;60981;50.720;11.342;2023-05-16T21:27:32;4.78;;;1.20;;
44973;SDS011;60981;50.720;11.342;2023-05-16T21:28:34;4.05;;;1.00;;
44973;SDS011;60981;50.720;11.342;2023-05-16T21:29:52;5.18;;;1.38;;
44973;SDS011;60981;50.720;11.342;2023-05-16T21:30:56;4.63;;;1.02;;
44973;SDS011;60981;50.720;11.342;2023-05-16T21:31:59;4.07;;;1.17;;
44973;SDS011;60981;50.720;11.342;2023-05-16T21:33:01;4.07;;;1.00;;
44973;SDS011;60981;50.720;11.342;2023-05-16T21:34:03;5.97;;;1.25;;
44973;SDS011;60981;50.720;11.342;2023-05-16T21:35:05;4.88;;;1.10;;
44973;SDS011;60981;50.720;11.342;2023-05-16T21:36:08;5.93;;;0.90;;
44973;SDS011;60981;50.720;11.342;2023-05-16T21:37:11;4.07;;;0.90;;
44973;SDS011;60981;50.720;11.342;2023-05-16T21:38:13;3.97;;;0.90;;
44973;SDS011;60981;50.720;11.342;2023-05-16T21:39:15;6.88;;;1.00;;
44973;SDS011;60981;50.720;11.342;2023-05-16T21:40:17;3.95;;;1.00;;
44973;SDS011;60981;50.720;11.342;2023-05-16T21:41:25;5.15;;;1.13;;
44973;SDS011;60981;50.720;11.342;2023-05-16T21:42:27;3.30;;;0.75;;
44973;SDS011;60981;50.720;11.342;2023-05-16T21:43:31;3.33;;;0.70;;
44973;SDS011;60981;50.720;11.342;2023-05-16T21:44:33;4.73;;;0.97;;
44973;SDS011;60981;50.720;11.342;2023-05-16T21:45:35;5.45;;;1.05;;
44973;SDS011;60981;50.720;11.342;2023-05-16T21:46:37;4.28;;;1.00;;
44973;SDS011;60981;50.720;11.342;2023-05-16T21:47:39;3.55;;;0.60;;
44973;SDS011;60981;50.720;11.342;2023-05-16T21:48:40;3.53;;;0.85;;
44973;SDS011;60981;50.720;11.342;2023-05-16T21:49:42;3.85;;;0.80;;
44973;SDS011;60981;50.720;11.342;2023-05-16T21:50:46;4.50;;;0.80;;
44973;SDS011;60981;50.720;11.342;2023-05-16T21:51:48;4.85;;;1.10;;
44973;SDS011;60981;50.720;11.342;2023-05-16T21:52:51;3.90;;;0.98;;
44973;SDS011;60981;50.720;11.342;2023-05-16T21:53:53;3.45;;;0.60;;
44973;SDS011;60981;50.720;11.342;2023-05-16T21:54:56;5.38;;;0.80;;
44973;SDS011;60981;50.720;11.342;2023-05-16T21:55:58;4.00;;;0.90;;
44973;SDS011;60981;50.720;11.342;2023-05-16T21:57:00;5.60;;;1.10;;
44973;SDS011;60981;50.720;11.342;2023-05-16T21:58:02;4.05;;;0.60;;
44973;SDS011;60981;50.720;11.342;2023-05-16T21:59:05;3.28;;;0.70;;
44973;SDS011;60981;50.720;11.342;2023-05-16T22:00:07;5.88;;;1.02;;
44973;SDS011;60981;50.720;11.342;2023-05-16T22:01:10;4.28;;;0.90;;
44973;SDS011;60981;50.720;11.342;2023-05-16T22:02:13;3.55;;;0.80;;
44973;SDS011;60981;50.720;11.342;2023-05-16T22:03:15;5.10;;;0.77;;
44973;SDS011;60981;50.720;11.342;2023-05-16T22:04:19;4.18;;;0.88;;
44973;SDS011;60981;50.720;11.342;2023-05-16T22:05:21;4.05;;;0.75;;
44973;SDS011;60981;50.720;11.342;2023-05-16T22:06:23;3.43;;;0.80;;
44973;SDS011;60981;50.720;11.342;2023-05-16T22:07:26;4.13;;;0.80;;
44973;SDS011;60981;50.720;11.342;2023-05-16T22:08:29;5.00;;;0.80;;
44973;SDS011;60981;50.720;11.342;2023-05-16T22:09:31;5.68;;;0.80;;
44973;SDS011;60981;50.720;11.342;2023-05-16T22:10:33;3.58;;;1.00;;
44973;SDS011;60981;50.720;11.342;2023-05-16T22:11:34;3.83;;;0.80;;
44973;SDS011;60981;50.720;11.342;2023-05-16T22:12:36;5.70;;;1.00;;
44973;SDS011;60981;50.720;11.342;2023-05-16T22:13:40;5.45;;;0.85;;
44973;SDS011;60981;50.720;11.342;2023-05-16T22:14:42;4.15;;;0.70;;
44973;SDS011;60981;50.720;11.342;2023-05-16T22:15:44;5.40;;;0.80;;
44973;SDS011;60981;50.720;11.342;2023-05-16T22:17:04;4.23;;;0.60;;
44973;SDS011;60981;50.720;11.342;2023-05-16T22:18:06;5.40;;;0.90;;
44973;SDS011;60981;50.720;11.342;2023-05-16T22:19:08;5.10;;;1.08;;
44973;SDS011;60981;50.720;11.342;2023-05-16T22:20:14;3.78;;;0.80;;
44973;SDS011;60981;50.720;11.342;2023-05-16T22:21:16;3.05;;;0.65;;
44973;SDS011;60981;50.720;11.342;2023-05-16T22:22:18;3.60;;;0.82;;
44973;SDS011;60981;50.720;11.342;2023-05-16T22:23:21;4.10;;;0.70;;
44973;SDS011;60981;50.720;11.342;2023-05-16T22:24:24;5.43;;;0.60;;
44973;SDS011;60981;50.720;11.342;2023-05-16T22:25:26;5.10;;;0.82;;
44973;SDS011;60981;50.720;11.342;2023-05-16T22:26:31;3.88;;;0.88;;
44973;SDS011;60981;50.720;11.342;2023-05-16T22:27:33;5.35;;;0.80;;
44973;SDS011;60981;50.720;11.342;2023-05-16T22:28:36;4.93;;;0.82;;
44973;SDS011;60981;50.720;11.342;2023-05-16T22:29:38;3.55;;;0.85;;
44973;SDS011;60981;50.720;11.342;2023-05-16T22:30:40;4.90;;;1.00;;
44973;SDS011;60981;50.720;11.342;2023-05-16T22:31:41;4.75;;;1.00;;
44973;SDS011;60981;50.720;11.342;2023-05-16T22:32:45;4.43;;;0.70;;
44973;SDS011;60981;50.720;11.342;2023-05-16T22:33:47;3.65;;;0.80;;
44973;SDS011;60981;50.720;11.342;2023-05-16T22:34:50;5.22;;;0.75;;
44973;SDS011;60981;50.720;11.342;2023-05-16T22:35:54;5.30;;;0.90;;
44973;SDS011;60981;50.720;11.342;2023-05-16T22:36:56;5.00;;;0.88;;
44973;SDS011;60981;50.720;11.342;2023-05-16T22:37:57;4.85;;;0.65;;
44973;SDS011;60981;50.720;11.342;2023-05-16T22:38:59;4.07;;;0.70;;
44973;SDS011;60981;50.720;11.342;2023-05-16T22:40:01;5.32;;;1.00;;
44973;SDS011;60981;50.720;11.342;2023-05-16T22:41:03;3.90;;;0.63;;
44973;SDS011;60981;50.720;11.342;2023-05-16T22:42:07;5.30;;;0.85;;
44973;SDS011;60981;50.720;11.342;2023-05-16T22:43:09;4.60;;;0.90;;
44973;SDS011;60981;50.720;11.342;2023-05-16T22:44:11;3.20;;;0.70;;
44973;SDS011;60981;50.720;11.342;2023-05-16T22:45:14;4.45;;;0.80;;
44973;SDS011;60981;50.720;11.342;2023-05-16T22:46:16;5.30;;;0.85;;
44973;SDS011;60981;50.720;11.342;2023-05-16T22:47:18;5.00;;;0.80;;
44973;SDS011;60981;50.720;11.342;2023-05-16T22:48:20;5.15;;;0.75;;
44973;SDS011;60981;50.720;11.342;2023-05-16T22:49:21;5.30;;;0.90;;
44973;SDS011;60981;50.720;11.342;2023-05-16T22:50:24;3.55;;;0.80;;
44973;SDS011;60981;50.720;11.342;2023-05-16T22:51:26;7.05;;;1.05;;
44973;SDS011;60981;50.720;11.342;2023-05-16T22:52:28;4.75;;;0.70;;
44973;SDS011;60981;50.720;11.342;2023-05-16T22:53:29;3.90;;;0.68;;
44973;SDS011;60981;50.720;11.342;2023-05-16T22:54:31;3.85;;;0.50;;
44973;SDS011;60981;50.720;11.342;2023-05-16T22:55:32;4.13;;;0.60;;
44973;SDS011;60981;50.720;11.342;2023-05-16T22:56:35;3.50;;;0.95;;
44973;SDS011;60981;50.720;11.342;2023-05-16T22:57:37;4.88;;;0.75;;
44973;SDS011;60981;50.720;11.342;2023-05-16T22:58:39;4.55;;;1.10;;
44973;SDS011;60981;50.720;11.342;2023-05-16T22:59:42;5.03;;;0.75;;
44973;SDS011;60981;50.720;11.342;2023-05-16T23:00:44;4.18;;;0.98;;
44973;SDS011;60981;50.720;11.342;2023-05-16T23:01:46;2.78;;;0.60;;
44973;SDS011;60981;50.720;11.342;2023-05-16T23:02:48;4.45;;;0.90;;
44973;SDS011;60981;50.720;11.342;2023-05-16T23:03:50;6.03;;;0.90;;
44973;SDS011;60981;50.720;11.342;2023-05-16T23:04:52;3.97;;;0.70;;
44973;SDS011;60981;50.720;11.342;2023-05-16T23:05:55;4.70;;;0.82;;
44973;SDS011;60981;50.720;11.342;2023-05-16T23:06:57;3.17;;;0.60;;
44973;SDS011;60981;50.720;11.342;2023-05-16T23:08:00;5.20;;;0.70;;
44973;SDS011;60981;50.720;11.342;2023-05-16T23:09:05;2.97;;;0.60;;
44973;SDS011;60981;50.720;11.342;2023-05-16T23:10:09;3.30;;;0.60;;
44973;SDS011;60981;50.720;11.342;2023-05-16T23:11:14;2.60;;;0.70;;
44973;SDS011;60981;50.720;11.342;2023-05-16T23:12:16;4.03;;;0.65;;
44973;SDS011;60981;50.720;11.342;2023-05-16T23:13:18;5.28;;;0.80;;
44973;SDS011;60981;50.720;11.342;2023-05-16T23:14:22;4.70;;;1.00;;
44973;SDS011;60981;50.720;11.342;2023-05-16T23:15:23;3.75;;;0.70;;
44973;SDS011;60981;50.720;11.342;2023-05-16T23:16:26;4.65;;;0.80;;
44973;SDS011;60981;50.720;11.342;2023-05-16T23:17:28;4.05;;;0.80;;
44973;SDS011;60981;50.720;11.342;2023-05-16T23:18:30;3.65;;;0.80;;
44973;SDS011;60981;50.720;11.342;2023-05-16T23:19:32;5.07;;;1.33;;
44973;SDS011;60981;50.720;11.342;2023-05-16T23:20:35;6.30;;;2.20;;
44973;SDS011;60981;50.720;11.342;2023-05-16T23:21:37;6.15;;;1.60;;
44973;SDS011;60981;50.720;11.342;2023-05-16T23:22:40;5.00;;;1.20;;
44973;SDS011;60981;50.720;11.342;2023-05-16T23:23:42;4.80;;;1.20;;
44973;SDS011;60981;50.720;11.342;2023-05-16T23:24:45;5.25;;;1.45;;
44973;SDS011;60981;50.720;11.342;2023-05-16T23:25:47;5.93;;;0.98;;
44973;SDS011;60981;50.720;11.342;2023-05-16T23:26:50;3.75;;;0.80;;
44973;SDS011;60981;50.720;11.342;2023-05-16T23:27:54;4.10;;;0.80;;
44973;SDS011;60981;50.720;11.342;2023-05-16T23:28:59;5.40;;;0.93;;
44973;SDS011;60981;50.720;11.342;2023-05-16T23:30:01;4.65;;;0.90;;
44973;SDS011;60981;50.720;11.342;2023-05-16T23:31:03;4.85;;;0.75;;
44973;SDS011;60981;50.720;11.342;2023-05-16T23:32:05;3.35;;;0.70;;
44973;SDS011;60981;50.720;11.342;2023-05-16T23:33:07;3.80;;;0.70;;
44973;SDS011;60981;50.720;11.342;2023-05-16T23:34:08;6.18;;;1.10;;
44973;SDS011;60981;50.720;11.342;2023-05-16T23:35:12;5.95;;;0.70;;
44973;SDS011;60981;50.720;11.342;2023-05-16T23:36:13;3.03;;;0.70;;
44973;SDS011;60981;50.720;11.342;2023-05-16T23:37:16;4.85;;;0.82;;
44973;SDS011;60981;50.720;11.342;2023-05-16T23:38:18;5.38;;;1.20;;
44973;SDS011;60981;50.720;11.342;2023-05-16T23:39:20;4.15;;;0.90;;
44973;SDS011;60981;50.720;11.342;2023-05-16T23:40:22;3.72;;;0.68;;